sensor_id;sensor_type;location;lat;lon;timestamp;P1;durP1;ratioP1;P2;durP2;ratioP2
66272;SDS011;58450;52.150;4.466;2023-04-03T00:01:07;3.80;;;1.80;;
66272;SDS011;58450;52.150;4.466;2023-04-03T00:03:35;3.10;;;1.48;;
66272;SDS011;58450;52.150;4.466;2023-04-03T00:06:03;4.38;;;1.58;;
66272;SDS011;58450;52.150;4.466;2023-04-03T00:08:33;3.45;;;1.60;;
66272;SDS011;58450;52.150;4.466;2023-04-03T00:11:02;3.40;;;1.35;;
66272;SDS011;58450;52.150;4.466;2023-04-03T00:13:30;2.75;;;1.30;;
66272;SDS011;58450;52.150;4.466;2023-04-03T00:15:58;4.50;;;1.40;;
66272;SDS011;58450;52.150;4.466;2023-04-03T00:18:26;3.45;;;1.42;;
66272;SDS011;58450;52.150;4.466;2023-04-03T00:20:54;2.50;;;1.30;;
66272;SDS011;58450;52.150;4.466;2023-04-03T00:23:22;2.38;;;1.45;;
66272;SDS011;58450;52.150;4.466;2023-04-03T00:25:51;4.15;;;1.75;;
66272;SDS011;58450;52.150;4.466;2023-04-03T00:28:21;3.95;;;1.30;;
66272;SDS011;58450;52.150;4.466;2023-04-03T00:30:49;2.83;;;1.48;;
66272;SDS011;58450;52.150;4.466;2023-04-03T00:33:17;2.95;;;1.40;;
66272;SDS011;58450;52.150;4.466;2023-04-03T00:35:47;2.15;;;1.30;;
66272;SDS011;58450;52.150;4.466;2023-04-03T00:38:15;4.05;;;1.50;;
66272;SDS011;58450;52.150;4.466;2023-04-03T00:40:44;7.05;;;1.60;;
66272;SDS011;58450;52.150;4.466;2023-04-03T00:43:16;2.65;;;1.30;;
66272;SDS011;58450;52.150;4.466;2023-04-03T00:45:50;3.40;;;1.40;;
66272;SDS011;58450;52.150;4.466;2023-04-03T00:48:20;2.67;;;1.33;;
66272;SDS011;58450;52.150;4.466;2023-04-03T00:50:53;4.68;;;1.30;;
66272;SDS011;58450;52.150;4.466;2023-04-03T00:53:22;2.60;;;1.33;;
66272;SDS011;58450;52.150;4.466;2023-04-03T00:55:55;3.67;;;1.35;;
66272;SDS011;58450;52.150;4.466;2023-04-03T00:58:27;3.05;;;1.50;;
66272;SDS011;58450;52.150;4.466;2023-04-03T01:01:05;3.30;;;1.40;;
66272;SDS011;58450;52.150;4.466;2023-04-03T01:03:38;3.28;;;1.40;;
66272;SDS011;58450;52.150;4.466;2023-04-03T01:06:06;3.10;;;1.58;;
66272;SDS011;58450;52.150;4.466;2023-04-03T01:08:33;2.90;;;1.55;;
66272;SDS011;58450;52.150;4.466;2023-04-03T01:11:02;4.00;;;1.55;;
66272;SDS011;58450;52.150;4.466;2023-04-03T01:13:32;2.88;;;1.45;;
66272;SDS011;58450;52.150;4.466;2023-04-03T01:16:00;3.20;;;1.38;;
66272;SDS011;58450;52.150;4.466;2023-04-03T01:18:32;2.92;;;1.42;;
66272;SDS011;58450;52.150;4.466;2023-04-03T01:27:01;4.68;;;1.67;;
66272;SDS011;58450;52.150;4.466;2023-04-03T01:29:34;3.75;;;1.77;;
66272;SDS011;58450;52.150;4.466;2023-04-03T01:32:04;4.20;;;1.60;;
66272;SDS011;58450;52.150;4.466;2023-04-03T01:34:31;4.50;;;1.40;;
66272;SDS011;58450;52.150;4.466;2023-04-03T01:36:59;3.17;;;1.40;;
66272;SDS011;58450;52.150;4.466;2023-04-03T01:39:27;3.78;;;1.45;;
66272;SDS011;58450;52.150;4.466;2023-04-03T01:41:54;2.13;;;1.40;;
66272;SDS011;58450;52.150;4.466;2023-04-03T01:44:22;3.22;;;1.50;;
66272;SDS011;58450;52.150;4.466;2023-04-03T01:46:49;3.30;;;1.45;;
66272;SDS011;58450;52.150;4.466;2023-04-03T01:49:18;3.92;;;1.58;;
66272;SDS011;58450;52.150;4.466;2023-04-03T01:51:45;2.65;;;1.45;;
66272;SDS011;58450;52.150;4.466;2023-04-03T01:54:13;3.35;;;1.40;;
66272;SDS011;58450;52.150;4.466;2023-04-03T01:56:41;2.40;;;1.45;;
66272;SDS011;58450;52.150;4.466;2023-04-03T01:59:08;3.13;;;1.48;;
66272;SDS011;58450;52.150;4.466;2023-04-03T02:01:36;3.88;;;1.45;;
66272;SDS011;58450;52.150;4.466;2023-04-03T02:04:04;3.50;;;1.33;;
66272;SDS011;58450;52.150;4.466;2023-04-03T02:06:33;2.80;;;1.30;;
66272;SDS011;58450;52.150;4.466;2023-04-03T02:09:01;4.30;;;1.70;;
66272;SDS011;58450;52.150;4.466;2023-04-03T02:11:28;3.78;;;1.50;;
66272;SDS011;58450;52.150;4.466;2023-04-03T02:13:56;4.07;;;1.60;;
66272;SDS011;58450;52.150;4.466;2023-04-03T02:16:23;4.95;;;1.50;;
66272;SDS011;58450;52.150;4.466;2023-04-03T02:18:51;2.75;;;1.52;;
66272;SDS011;58450;52.150;4.466;2023-04-03T02:21:18;2.72;;;1.50;;
66272;SDS011;58450;52.150;4.466;2023-04-03T02:23:47;3.78;;;1.45;;
66272;SDS011;58450;52.150;4.466;2023-04-03T02:26:16;2.17;;;1.30;;
66272;SDS011;58450;52.150;4.466;2023-04-03T02:28:44;2.83;;;1.60;;
66272;SDS011;58450;52.150;4.466;2023-04-03T02:31:12;2.83;;;1.60;;
66272;SDS011;58450;52.150;4.466;2023-04-03T02:33:40;4.53;;;1.33;;
66272;SDS011;58450;52.150;4.466;2023-04-03T02:36:08;3.03;;;1.40;;
66272;SDS011;58450;52.150;4.466;2023-04-03T02:38:36;3.17;;;1.33;;
66272;SDS011;58450;52.150;4.466;2023-04-03T02:41:06;3.72;;;1.60;;
66272;SDS011;58450;52.150;4.466;2023-04-03T02:43:36;2.88;;;1.50;;
66272;SDS011;58450;52.150;4.466;2023-04-03T02:46:04;3.72;;;1.65;;
66272;SDS011;58450;52.150;4.466;2023-04-03T02:48:33;2.97;;;1.63;;
66272;SDS011;58450;52.150;4.466;2023-04-03T02:51:01;3.13;;;1.50;;
66272;SDS011;58450;52.150;4.466;2023-04-03T02:53:28;4.05;;;1.60;;
66272;SDS011;58450;52.150;4.466;2023-04-03T02:55:56;3.00;;;1.67;;
66272;SDS011;58450;52.150;4.466;2023-04-03T02:58:25;4.47;;;1.80;;
66272;SDS011;58450;52.150;4.466;2023-04-03T03:00:52;5.45;;;1.73;;
66272;SDS011;58450;52.150;4.466;2023-04-03T03:03:20;3.05;;;1.48;;
66272;SDS011;58450;52.150;4.466;2023-04-03T03:05:48;3.85;;;1.50;;
66272;SDS011;58450;52.150;4.466;2023-04-03T03:08:16;3.17;;;1.60;;
66272;SDS011;58450;52.150;4.466;2023-04-03T03:10:45;2.47;;;1.50;;
66272;SDS011;58450;52.150;4.466;2023-04-03T03:13:13;4.53;;;2.05;;
66272;SDS011;58450;52.150;4.466;2023-04-03T03:15:42;4.38;;;1.70;;
66272;SDS011;58450;52.150;4.466;2023-04-03T03:18:09;2.60;;;1.67;;
66272;SDS011;58450;52.150;4.466;2023-04-03T03:20:37;2.80;;;1.85;;
66272;SDS011;58450;52.150;4.466;2023-04-03T03:23:04;3.63;;;1.80;;
66272;SDS011;58450;52.150;4.466;2023-04-03T03:25:32;3.05;;;1.45;;
66272;SDS011;58450;52.150;4.466;2023-04-03T03:28:00;3.35;;;1.83;;
66272;SDS011;58450;52.150;4.466;2023-04-03T03:30:27;5.18;;;1.80;;
66272;SDS011;58450;52.150;4.466;2023-04-03T03:32:56;4.22;;;1.75;;
66272;SDS011;58450;52.150;4.466;2023-04-03T03:35:23;4.75;;;2.00;;
66272;SDS011;58450;52.150;4.466;2023-04-03T03:37:51;3.47;;;1.70;;
66272;SDS011;58450;52.150;4.466;2023-04-03T03:40:18;3.50;;;1.90;;
66272;SDS011;58450;52.150;4.466;2023-04-03T03:42:46;4.07;;;1.83;;
66272;SDS011;58450;52.150;4.466;2023-04-03T03:45:14;2.78;;;1.60;;
66272;SDS011;58450;52.150;4.466;2023-04-03T03:47:41;4.50;;;1.40;;
66272;SDS011;58450;52.150;4.466;2023-04-03T03:50:10;4.78;;;1.73;;
66272;SDS011;58450;52.150;4.466;2023-04-03T03:52:38;4.68;;;1.90;;
66272;SDS011;58450;52.150;4.466;2023-04-03T03:55:06;2.97;;;1.70;;
66272;SDS011;58450;52.150;4.466;2023-04-03T03:57:34;5.45;;;2.28;;
66272;SDS011;58450;52.150;4.466;2023-04-03T04:00:02;4.25;;;1.80;;
66272;SDS011;58450;52.150;4.466;2023-04-03T04:02:30;5.35;;;2.10;;
66272;SDS011;58450;52.150;4.466;2023-04-03T04:04:58;4.20;;;1.88;;
66272;SDS011;58450;52.150;4.466;2023-04-03T04:07:27;3.67;;;1.80;;
66272;SDS011;58450;52.150;4.466;2023-04-03T04:09:55;4.40;;;1.90;;
66272;SDS011;58450;52.150;4.466;2023-04-03T04:12:22;3.83;;;1.75;;
66272;SDS011;58450;52.150;4.466;2023-04-03T04:14:50;4.60;;;1.92;;
66272;SDS011;58450;52.150;4.466;2023-04-03T04:17:17;4.57;;;1.88;;
66272;SDS011;58450;52.150;4.466;2023-04-03T04:19:45;3.65;;;1.80;;
66272;SDS011;58450;52.150;4.466;2023-04-03T04:22:13;4.00;;;1.80;;
66272;SDS011;58450;52.150;4.466;2023-04-03T04:24:42;3.50;;;1.85;;
66272;SDS011;58450;52.150;4.466;2023-04-03T04:27:09;4.97;;;1.65;;
66272;SDS011;58450;52.150;4.466;2023-04-03T04:29:37;7.72;;;1.88;;
66272;SDS011;58450;52.150;4.466;2023-04-03T04:32:04;4.00;;;1.73;;
66272;SDS011;58450;52.150;4.466;2023-04-03T04:34:32;3.67;;;1.92;;
66272;SDS011;58450;52.150;4.466;2023-04-03T04:36:59;4.97;;;1.70;;
66272;SDS011;58450;52.150;4.466;2023-04-03T04:39:27;3.67;;;1.90;;
66272;SDS011;58450;52.150;4.466;2023-04-03T04:41:56;5.72;;;2.05;;
66272;SDS011;58450;52.150;4.466;2023-04-03T04:44:23;3.65;;;1.90;;
66272;SDS011;58450;52.150;4.466;2023-04-03T04:46:51;4.68;;;2.05;;
66272;SDS011;58450;52.150;4.466;2023-04-03T04:49:18;3.85;;;1.80;;
66272;SDS011;58450;52.150;4.466;2023-04-03T04:51:46;5.82;;;2.40;;
66272;SDS011;58450;52.150;4.466;2023-04-03T04:54:13;5.78;;;2.50;;
66272;SDS011;58450;52.150;4.466;2023-04-03T04:56:41;5.15;;;1.92;;
66272;SDS011;58450;52.150;4.466;2023-04-03T04:59:10;4.25;;;1.95;;
66272;SDS011;58450;52.150;4.466;2023-04-03T05:01:37;5.95;;;2.17;;
66272;SDS011;58450;52.150;4.466;2023-04-03T05:04:05;4.82;;;2.20;;
66272;SDS011;58450;52.150;4.466;2023-04-03T05:06:33;5.28;;;2.00;;
66272;SDS011;58450;52.150;4.466;2023-04-03T05:09:00;5.53;;;2.20;;
66272;SDS011;58450;52.150;4.466;2023-04-03T05:11:28;7.10;;;2.28;;
66272;SDS011;58450;52.150;4.466;2023-04-03T05:13:56;5.90;;;1.98;;
66272;SDS011;58450;52.150;4.466;2023-04-03T05:16:25;6.70;;;2.10;;
66272;SDS011;58450;52.150;4.466;2023-04-03T05:18:52;5.18;;;1.98;;
66272;SDS011;58450;52.150;4.466;2023-04-03T05:21:20;5.82;;;2.20;;
66272;SDS011;58450;52.150;4.466;2023-04-03T05:23:49;4.45;;;1.90;;
66272;SDS011;58450;52.150;4.466;2023-04-03T05:26:16;6.45;;;2.05;;
66272;SDS011;58450;52.150;4.466;2023-04-03T05:28:44;5.45;;;2.17;;
66272;SDS011;58450;52.150;4.466;2023-04-03T05:31:12;4.57;;;2.22;;
66272;SDS011;58450;52.150;4.466;2023-04-03T05:33:41;5.18;;;2.20;;
66272;SDS011;58450;52.150;4.466;2023-04-03T05:36:09;5.22;;;2.15;;
66272;SDS011;58450;52.150;4.466;2023-04-03T05:38:38;5.10;;;2.25;;
66272;SDS011;58450;52.150;4.466;2023-04-03T05:41:06;5.57;;;2.50;;
66272;SDS011;58450;52.150;4.466;2023-04-03T05:43:34;3.88;;;2.28;;
66272;SDS011;58450;52.150;4.466;2023-04-03T05:46:03;4.20;;;2.13;;
66272;SDS011;58450;52.150;4.466;2023-04-03T05:48:31;4.70;;;2.17;;
66272;SDS011;58450;52.150;4.466;2023-04-03T05:51:00;4.90;;;2.20;;
66272;SDS011;58450;52.150;4.466;2023-04-03T05:53:28;4.00;;;2.13;;
66272;SDS011;58450;52.150;4.466;2023-04-03T05:56:00;4.97;;;1.98;;
66272;SDS011;58450;52.150;4.466;2023-04-03T05:58:27;6.68;;;2.50;;
66272;SDS011;58450;52.150;4.466;2023-04-03T06:00:55;5.07;;;2.22;;
66272;SDS011;58450;52.150;4.466;2023-04-03T06:03:23;4.43;;;2.30;;
66272;SDS011;58450;52.150;4.466;2023-04-03T06:05:50;5.65;;;2.10;;
66272;SDS011;58450;52.150;4.466;2023-04-03T06:08:20;5.22;;;1.90;;
66272;SDS011;58450;52.150;4.466;2023-04-03T06:10:47;4.07;;;1.90;;
66272;SDS011;58450;52.150;4.466;2023-04-03T06:13:16;5.45;;;2.35;;
66272;SDS011;58450;52.150;4.466;2023-04-03T06:15:43;7.90;;;2.65;;
66272;SDS011;58450;52.150;4.466;2023-04-03T06:18:12;6.40;;;2.47;;
66272;SDS011;58450;52.150;4.466;2023-04-03T06:20:40;4.35;;;2.28;;
66272;SDS011;58450;52.150;4.466;2023-04-03T06:23:07;5.00;;;1.98;;
66272;SDS011;58450;52.150;4.466;2023-04-03T06:25:37;4.50;;;2.03;;
66272;SDS011;58450;52.150;4.466;2023-04-03T06:28:05;6.55;;;2.15;;
66272;SDS011;58450;52.150;4.466;2023-04-03T06:30:34;6.30;;;2.13;;
66272;SDS011;58450;52.150;4.466;2023-04-03T06:33:02;5.00;;;1.98;;
66272;SDS011;58450;52.150;4.466;2023-04-03T06:35:30;5.65;;;2.03;;
66272;SDS011;58450;52.150;4.466;2023-04-03T06:38:00;4.50;;;1.83;;
66272;SDS011;58450;52.150;4.466;2023-04-03T06:40:29;6.40;;;1.85;;
66272;SDS011;58450;52.150;4.466;2023-04-03T06:42:58;2.53;;;1.50;;
66272;SDS011;58450;52.150;4.466;2023-04-03T06:45:26;5.00;;;2.10;;
66272;SDS011;58450;52.150;4.466;2023-04-03T06:47:53;6.18;;;2.13;;
66272;SDS011;58450;52.150;4.466;2023-04-03T06:50:21;6.32;;;2.35;;
66272;SDS011;58450;52.150;4.466;2023-04-03T06:52:48;6.90;;;2.30;;
66272;SDS011;58450;52.150;4.466;2023-04-03T06:55:16;5.35;;;1.75;;
66272;SDS011;58450;52.150;4.466;2023-04-03T06:57:44;5.88;;;1.92;;
66272;SDS011;58450;52.150;4.466;2023-04-03T07:00:14;4.68;;;2.10;;
66272;SDS011;58450;52.150;4.466;2023-04-03T07:02:43;6.18;;;1.90;;
66272;SDS011;58450;52.150;4.466;2023-04-03T07:05:11;3.95;;;1.70;;
66272;SDS011;58450;52.150;4.466;2023-04-03T07:07:39;5.18;;;2.00;;
66272;SDS011;58450;52.150;4.466;2023-04-03T07:10:07;3.65;;;1.67;;
66272;SDS011;58450;52.150;4.466;2023-04-03T07:12:35;4.47;;;1.70;;
66272;SDS011;58450;52.150;4.466;2023-04-03T07:15:04;5.28;;;2.00;;
66272;SDS011;58450;52.150;4.466;2023-04-03T07:17:35;4.70;;;1.90;;
66272;SDS011;58450;52.150;4.466;2023-04-03T07:20:03;4.78;;;1.65;;
66272;SDS011;58450;52.150;4.466;2023-04-03T07:22:32;5.97;;;2.10;;
66272;SDS011;58450;52.150;4.466;2023-04-03T07:25:00;5.72;;;2.00;;
66272;SDS011;58450;52.150;4.466;2023-04-03T07:27:28;2.75;;;1.60;;
66272;SDS011;58450;52.150;4.466;2023-04-03T07:29:55;3.20;;;1.70;;
66272;SDS011;58450;52.150;4.466;2023-04-03T07:32:23;4.07;;;1.75;;
66272;SDS011;58450;52.150;4.466;2023-04-03T07:34:52;5.50;;;1.80;;
66272;SDS011;58450;52.150;4.466;2023-04-03T07:37:20;4.38;;;1.88;;
66272;SDS011;58450;52.150;4.466;2023-04-03T07:39:48;4.22;;;1.52;;
66272;SDS011;58450;52.150;4.466;2023-04-03T07:42:16;5.63;;;1.60;;
66272;SDS011;58450;52.150;4.466;2023-04-03T07:44:44;5.18;;;1.83;;
66272;SDS011;58450;52.150;4.466;2023-04-03T07:47:12;3.47;;;1.73;;
66272;SDS011;58450;52.150;4.466;2023-04-03T07:49:42;5.63;;;1.58;;
66272;SDS011;58450;52.150;4.466;2023-04-03T07:52:10;4.20;;;1.63;;
66272;SDS011;58450;52.150;4.466;2023-04-03T07:54:39;3.28;;;1.30;;
66272;SDS011;58450;52.150;4.466;2023-04-03T07:57:06;1.90;;;1.20;;
66272;SDS011;58450;52.150;4.466;2023-04-03T07:59:34;3.65;;;1.50;;
66272;SDS011;58450;52.150;4.466;2023-04-03T08:02:02;3.38;;;1.52;;
66272;SDS011;58450;52.150;4.466;2023-04-03T08:04:30;4.82;;;1.52;;
66272;SDS011;58450;52.150;4.466;2023-04-03T08:06:58;4.97;;;1.30;;
66272;SDS011;58450;52.150;4.466;2023-04-03T08:09:27;4.35;;;1.38;;
66272;SDS011;58450;52.150;4.466;2023-04-03T08:11:54;3.80;;;1.40;;
66272;SDS011;58450;52.150;4.466;2023-04-03T08:14:22;3.13;;;1.20;;
66272;SDS011;58450;52.150;4.466;2023-04-03T08:16:50;3.92;;;1.60;;
66272;SDS011;58450;52.150;4.466;2023-04-03T08:19:17;4.40;;;1.75;;
66272;SDS011;58450;52.150;4.466;2023-04-03T08:21:45;6.15;;;1.45;;
66272;SDS011;58450;52.150;4.466;2023-04-03T08:24:12;3.40;;;1.40;;
66272;SDS011;58450;52.150;4.466;2023-04-03T08:26:41;2.83;;;1.10;;
66272;SDS011;58450;52.150;4.466;2023-04-03T08:29:09;3.45;;;1.33;;
66272;SDS011;58450;52.150;4.466;2023-04-03T08:31:36;4.53;;;1.50;;
66272;SDS011;58450;52.150;4.466;2023-04-03T08:34:04;4.35;;;1.40;;
66272;SDS011;58450;52.150;4.466;2023-04-03T08:36:32;4.47;;;1.40;;
66272;SDS011;58450;52.150;4.466;2023-04-03T08:39:00;3.85;;;1.30;;
66272;SDS011;58450;52.150;4.466;2023-04-03T08:41:29;4.10;;;1.48;;
66272;SDS011;58450;52.150;4.466;2023-04-03T08:44:04;3.13;;;1.40;;
66272;SDS011;58450;52.150;4.466;2023-04-03T08:46:49;3.92;;;1.35;;
66272;SDS011;58450;52.150;4.466;2023-04-03T08:49:39;4.28;;;1.60;;
66272;SDS011;58450;52.150;4.466;2023-04-03T08:52:14;3.22;;;1.20;;
66272;SDS011;58450;52.150;4.466;2023-04-03T08:54:48;3.45;;;1.20;;
66272;SDS011;58450;52.150;4.466;2023-04-03T08:57:25;4.03;;;1.45;;
66272;SDS011;58450;52.150;4.466;2023-04-03T08:59:59;4.82;;;1.60;;
66272;SDS011;58450;52.150;4.466;2023-04-03T09:02:32;3.10;;;1.20;;
66272;SDS011;58450;52.150;4.466;2023-04-03T09:05:09;3.20;;;1.30;;
66272;SDS011;58450;52.150;4.466;2023-04-03T09:07:42;3.63;;;1.25;;
66272;SDS011;58450;52.150;4.466;2023-04-03T09:10:14;3.75;;;1.40;;
66272;SDS011;58450;52.150;4.466;2023-04-03T09:12:55;3.53;;;1.20;;
66272;SDS011;58450;52.150;4.466;2023-04-03T09:15:34;3.83;;;1.20;;
66272;SDS011;58450;52.150;4.466;2023-04-03T09:18:03;3.67;;;1.40;;
66272;SDS011;58450;52.150;4.466;2023-04-03T09:20:42;2.17;;;1.02;;
66272;SDS011;58450;52.150;4.466;2023-04-03T09:23:22;3.05;;;1.30;;
66272;SDS011;58450;52.150;4.466;2023-04-03T09:25:58;3.03;;;1.10;;
66272;SDS011;58450;52.150;4.466;2023-04-03T09:28:33;3.03;;;1.17;;
66272;SDS011;58450;52.150;4.466;2023-04-03T09:31:13;2.45;;;1.00;;
66272;SDS011;58450;52.150;4.466;2023-04-03T09:33:48;3.35;;;1.02;;
66272;SDS011;58450;52.150;4.466;2023-04-03T09:39:10;2.28;;;0.98;;
66272;SDS011;58450;52.150;4.466;2023-04-03T09:41:43;2.50;;;1.13;;
66272;SDS011;58450;52.150;4.466;2023-04-03T09:44:25;3.55;;;1.02;;
66272;SDS011;58450;52.150;4.466;2023-04-03T09:46:57;3.10;;;1.08;;
66272;SDS011;58450;52.150;4.466;2023-04-03T09:49:25;3.13;;;0.90;;
66272;SDS011;58450;52.150;4.466;2023-04-03T09:51:53;2.83;;;1.05;;
66272;SDS011;58450;52.150;4.466;2023-04-03T09:54:25;2.60;;;1.10;;
66272;SDS011;58450;52.150;4.466;2023-04-03T09:57:07;1.40;;;0.77;;
66272;SDS011;58450;52.150;4.466;2023-04-03T09:59:41;3.28;;;0.98;;
66272;SDS011;58450;52.150;4.466;2023-04-03T10:02:22;1.88;;;0.90;;
66272;SDS011;58450;52.150;4.466;2023-04-03T10:05:00;2.78;;;0.80;;
66272;SDS011;58450;52.150;4.466;2023-04-03T10:07:30;1.50;;;0.82;;
66272;SDS011;58450;52.150;4.466;2023-04-03T10:10:02;2.25;;;0.90;;
66272;SDS011;58450;52.150;4.466;2023-04-03T10:12:44;2.83;;;1.00;;
66272;SDS011;58450;52.150;4.466;2023-04-03T10:15:11;2.88;;;0.90;;
66272;SDS011;58450;52.150;4.466;2023-04-03T10:17:47;2.75;;;0.93;;
66272;SDS011;58450;52.150;4.466;2023-04-03T10:20:30;1.73;;;1.10;;
66272;SDS011;58450;52.150;4.466;2023-04-03T10:23:14;1.98;;;0.90;;
66272;SDS011;58450;52.150;4.466;2023-04-03T10:25:48;2.67;;;0.80;;
66272;SDS011;58450;52.150;4.466;2023-04-03T10:28:31;5.63;;;1.10;;
66272;SDS011;58450;52.150;4.466;2023-04-03T10:31:12;2.53;;;0.70;;
66272;SDS011;58450;52.150;4.466;2023-04-03T10:33:52;2.67;;;0.98;;
66272;SDS011;58450;52.150;4.466;2023-04-03T10:36:34;2.15;;;0.73;;
66272;SDS011;58450;52.150;4.466;2023-04-03T10:39:12;1.95;;;0.70;;
66272;SDS011;58450;52.150;4.466;2023-04-03T10:41:56;1.85;;;0.60;;
66272;SDS011;58450;52.150;4.466;2023-04-03T10:44:36;1.60;;;0.75;;
66272;SDS011;58450;52.150;4.466;2023-04-03T10:47:18;3.08;;;0.90;;
66272;SDS011;58450;52.150;4.466;2023-04-03T10:49:55;2.83;;;1.02;;
66272;SDS011;58450;52.150;4.466;2023-04-03T10:52:35;3.05;;;0.75;;
66272;SDS011;58450;52.150;4.466;2023-04-03T10:55:19;1.65;;;0.80;;
66272;SDS011;58450;52.150;4.466;2023-04-03T10:58:01;1.58;;;0.70;;
66272;SDS011;58450;52.150;4.466;2023-04-03T11:00:34;1.45;;;0.65;;
66272;SDS011;58450;52.150;4.466;2023-04-03T11:03:10;1.85;;;0.88;;
66272;SDS011;58450;52.150;4.466;2023-04-03T11:05:45;2.10;;;0.70;;
66272;SDS011;58450;52.150;4.466;2023-04-03T11:08:22;1.30;;;0.65;;
66272;SDS011;58450;52.150;4.466;2023-04-03T11:10:57;1.63;;;0.65;;
66272;SDS011;58450;52.150;4.466;2023-04-03T11:13:31;2.10;;;1.00;;
66272;SDS011;58450;52.150;4.466;2023-04-03T11:16:05;0.93;;;0.50;;
66272;SDS011;58450;52.150;4.466;2023-04-03T11:18:35;1.00;;;0.70;;
66272;SDS011;58450;52.150;4.466;2023-04-03T11:21:12;1.02;;;0.50;;
66272;SDS011;58450;52.150;4.466;2023-04-03T11:23:48;1.10;;;0.60;;
66272;SDS011;58450;52.150;4.466;2023-04-03T11:26:20;1.52;;;0.70;;
66272;SDS011;58450;52.150;4.466;2023-04-03T11:28:53;2.08;;;0.70;;
66272;SDS011;58450;52.150;4.466;2023-04-03T11:31:31;0.90;;;0.50;;
66272;SDS011;58450;52.150;4.466;2023-04-03T11:34:19;1.35;;;0.70;;
66272;SDS011;58450;52.150;4.466;2023-04-03T11:37:04;1.55;;;0.65;;
66272;SDS011;58450;52.150;4.466;2023-04-03T11:39:47;0.50;;;0.50;;
66272;SDS011;58450;52.150;4.466;2023-04-03T11:42:25;1.33;;;0.77;;
66272;SDS011;58450;52.150;4.466;2023-04-03T11:47:57;1.48;;;0.80;;
66272;SDS011;58450;52.150;4.466;2023-04-03T11:50:43;1.58;;;0.60;;
66272;SDS011;58450;52.150;4.466;2023-04-03T11:53:32;1.65;;;0.60;;
66272;SDS011;58450;52.150;4.466;2023-04-03T11:56:04;1.80;;;0.88;;
66272;SDS011;58450;52.150;4.466;2023-04-03T12:01:53;1.38;;;0.68;;
66272;SDS011;58450;52.150;4.466;2023-04-03T12:04:24;1.98;;;0.70;;
66272;SDS011;58450;52.150;4.466;2023-04-03T12:12:57;0.98;;;0.43;;
66272;SDS011;58450;52.150;4.466;2023-04-03T12:24:48;12.90;;;6.00;;
66272;SDS011;58450;52.150;4.466;2023-04-03T12:27:21;11.18;;;4.70;;
66272;SDS011;58450;52.150;4.466;2023-04-03T12:29:58;5.32;;;1.98;;
66272;SDS011;58450;52.150;4.466;2023-04-03T12:32:35;1.38;;;0.73;;
66272;SDS011;58450;52.150;4.466;2023-04-03T12:35:23;1.98;;;0.77;;
66272;SDS011;58450;52.150;4.466;2023-04-03T12:38:14;0.70;;;0.60;;
66272;SDS011;58450;52.150;4.466;2023-04-03T12:41:02;1.50;;;0.73;;
66272;SDS011;58450;52.150;4.466;2023-04-03T12:43:53;1.55;;;0.50;;
66272;SDS011;58450;52.150;4.466;2023-04-03T12:46:45;1.50;;;0.60;;
66272;SDS011;58450;52.150;4.466;2023-04-03T12:49:24;1.05;;;0.50;;
66272;SDS011;58450;52.150;4.466;2023-04-03T12:52:03;1.05;;;0.70;;
66272;SDS011;58450;52.150;4.466;2023-04-03T12:54:43;1.95;;;0.73;;
66272;SDS011;58450;52.150;4.466;2023-04-03T12:57:16;1.58;;;0.60;;
66272;SDS011;58450;52.150;4.466;2023-04-03T12:59:48;1.27;;;0.70;;
66272;SDS011;58450;52.150;4.466;2023-04-03T13:02:25;1.60;;;0.70;;
66272;SDS011;58450;52.150;4.466;2023-04-03T13:04:56;1.70;;;0.50;;
66272;SDS011;58450;52.150;4.466;2023-04-03T13:07:28;1.20;;;0.55;;
66272;SDS011;58450;52.150;4.466;2023-04-03T13:09:59;0.60;;;0.50;;
66272;SDS011;58450;52.150;4.466;2023-04-03T13:12:31;2.00;;;0.60;;
66272;SDS011;58450;52.150;4.466;2023-04-03T13:15:02;2.53;;;0.80;;
66272;SDS011;58450;52.150;4.466;2023-04-03T13:17:44;1.95;;;0.65;;
66272;SDS011;58450;52.150;4.466;2023-04-03T13:20:16;2.05;;;0.70;;
66272;SDS011;58450;52.150;4.466;2023-04-03T13:22:50;1.10;;;0.55;;
66272;SDS011;58450;52.150;4.466;2023-04-03T13:25:24;2.53;;;0.98;;
66272;SDS011;58450;52.150;4.466;2023-04-03T13:27:56;1.77;;;0.73;;
66272;SDS011;58450;52.150;4.466;2023-04-03T13:30:30;1.25;;;0.70;;
66272;SDS011;58450;52.150;4.466;2023-04-03T13:33:01;1.42;;;0.77;;
66272;SDS011;58450;52.150;4.466;2023-04-03T13:35:35;1.60;;;0.70;;
66272;SDS011;58450;52.150;4.466;2023-04-03T13:38:21;1.88;;;0.82;;
66272;SDS011;58450;52.150;4.466;2023-04-03T13:40:53;2.20;;;0.90;;
66272;SDS011;58450;52.150;4.466;2023-04-03T13:43:26;1.98;;;0.68;;
66272;SDS011;58450;52.150;4.466;2023-04-03T13:45:59;2.72;;;0.70;;
66272;SDS011;58450;52.150;4.466;2023-04-03T13:48:49;3.00;;;0.77;;
66272;SDS011;58450;52.150;4.466;2023-04-03T13:51:21;2.67;;;0.90;;
66272;SDS011;58450;52.150;4.466;2023-04-03T13:53:53;1.25;;;0.80;;
66272;SDS011;58450;52.150;4.466;2023-04-03T13:56:27;1.35;;;0.77;;
66272;SDS011;58450;52.150;4.466;2023-04-03T13:59:18;4.40;;;0.85;;
66272;SDS011;58450;52.150;4.466;2023-04-03T14:01:53;2.80;;;0.70;;
66272;SDS011;58450;52.150;4.466;2023-04-03T14:04:44;2.28;;;0.90;;
66272;SDS011;58450;52.150;4.466;2023-04-03T14:07:19;2.85;;;0.80;;
66272;SDS011;58450;52.150;4.466;2023-04-03T14:09:47;1.38;;;0.60;;
66272;SDS011;58450;52.150;4.466;2023-04-03T14:12:16;1.88;;;0.80;;
66272;SDS011;58450;52.150;4.466;2023-04-03T14:14:51;2.47;;;0.90;;
66272;SDS011;58450;52.150;4.466;2023-04-03T14:17:21;1.65;;;0.60;;
66272;SDS011;58450;52.150;4.466;2023-04-03T14:19:52;1.85;;;0.80;;
66272;SDS011;58450;52.150;4.466;2023-04-03T14:22:23;1.27;;;0.80;;
66272;SDS011;58450;52.150;4.466;2023-04-03T14:24:54;2.55;;;0.80;;
66272;SDS011;58450;52.150;4.466;2023-04-03T14:27:23;2.17;;;0.90;;
66272;SDS011;58450;52.150;4.466;2023-04-03T14:29:54;2.05;;;0.70;;
66272;SDS011;58450;52.150;4.466;2023-04-03T14:32:26;2.03;;;0.73;;
66272;SDS011;58450;52.150;4.466;2023-04-03T14:34:54;2.08;;;0.80;;
66272;SDS011;58450;52.150;4.466;2023-04-03T14:37:23;2.22;;;0.77;;
66272;SDS011;58450;52.150;4.466;2023-04-03T14:39:55;1.83;;;0.90;;
66272;SDS011;58450;52.150;4.466;2023-04-03T14:42:26;2.33;;;0.60;;
66272;SDS011;58450;52.150;4.466;2023-04-03T14:44:57;1.67;;;0.80;;
66272;SDS011;58450;52.150;4.466;2023-04-03T14:47:27;1.48;;;0.70;;
66272;SDS011;58450;52.150;4.466;2023-04-03T14:49:57;1.65;;;0.68;;
66272;SDS011;58450;52.150;4.466;2023-04-03T14:52:26;1.33;;;0.70;;
66272;SDS011;58450;52.150;4.466;2023-04-03T14:57:28;1.35;;;0.57;;
66272;SDS011;58450;52.150;4.466;2023-04-03T14:59:57;1.60;;;0.75;;
66272;SDS011;58450;52.150;4.466;2023-04-03T15:02:28;2.17;;;0.80;;
66272;SDS011;58450;52.150;4.466;2023-04-03T15:05:00;1.73;;;0.85;;
66272;SDS011;58450;52.150;4.466;2023-04-03T15:07:32;2.75;;;0.85;;
66272;SDS011;58450;52.150;4.466;2023-04-03T15:10:05;2.05;;;0.93;;
66272;SDS011;58450;52.150;4.466;2023-04-03T15:12:44;2.00;;;0.85;;
66272;SDS011;58450;52.150;4.466;2023-04-03T15:15:13;2.30;;;0.88;;
66272;SDS011;58450;52.150;4.466;2023-04-03T15:17:47;2.47;;;0.88;;
66272;SDS011;58450;52.150;4.466;2023-04-03T15:20:20;2.45;;;1.00;;
66272;SDS011;58450;52.150;4.466;2023-04-03T15:22:50;2.53;;;1.13;;
66272;SDS011;58450;52.150;4.466;2023-04-03T15:25:17;2.83;;;0.90;;
66272;SDS011;58450;52.150;4.466;2023-04-03T15:27:45;2.28;;;0.90;;
66272;SDS011;58450;52.150;4.466;2023-04-03T15:30:13;2.20;;;1.10;;
66272;SDS011;58450;52.150;4.466;2023-04-03T15:32:44;2.42;;;1.00;;
66272;SDS011;58450;52.150;4.466;2023-04-03T15:35:14;2.30;;;1.10;;
66272;SDS011;58450;52.150;4.466;2023-04-03T15:37:42;2.67;;;1.20;;
66272;SDS011;58450;52.150;4.466;2023-04-03T15:40:10;2.25;;;1.10;;
66272;SDS011;58450;52.150;4.466;2023-04-03T15:42:38;2.15;;;0.88;;
66272;SDS011;58450;52.150;4.466;2023-04-03T15:45:07;1.73;;;0.80;;